sensor_id;sensor_type;location;lat;lon;timestamp;temperature;humidity
20658;DHT22;10488;50.846;4.078;2024-01-16T00:00:34;1.40;99.90
20658;DHT22;10488;50.846;4.078;2024-01-16T00:03:00;1.30;99.90
20658;DHT22;10488;50.846;4.078;2024-01-16T00:05:25;1.10;99.90
20658;DHT22;10488;50.846;4.078;2024-01-16T00:07:51;1.10;99.90
20658;DHT22;10488;50.846;4.078;2024-01-16T00:10:17;1.00;99.90
20658;DHT22;10488;50.846;4.078;2024-01-16T00:12:42;0.80;99.90
20658;DHT22;10488;50.846;4.078;2024-01-16T00:15:08;0.80;99.90
20658;DHT22;10488;50.846;4.078;2024-01-16T00:17:34;0.70;99.90
20658;DHT22;10488;50.846;4.078;2024-01-16T00:20:00;0.60;99.90
20658;DHT22;10488;50.846;4.078;2024-01-16T00:22:29;0.60;99.90
20658;DHT22;10488;50.846;4.078;2024-01-16T00:24:55;0.40;99.90
20658;DHT22;10488;50.846;4.078;2024-01-16T00:27:20;0.40;99.90
20658;DHT22;10488;50.846;4.078;2024-01-16T00:29:46;0.50;99.90
20658;DHT22;10488;50.846;4.078;2024-01-16T00:32:12;0.50;99.90
20658;DHT22;10488;50.846;4.078;2024-01-16T00:34:42;0.40;99.90
20658;DHT22;10488;50.846;4.078;2024-01-16T00:37:08;0.40;99.90
20658;DHT22;10488;50.846;4.078;2024-01-16T00:39:34;0.30;99.90
20658;DHT22;10488;50.846;4.078;2024-01-16T00:42:01;0.30;99.90
20658;DHT22;10488;50.846;4.078;2024-01-16T00:44:27;0.30;99.90
20658;DHT22;10488;50.846;4.078;2024-01-16T00:46:53;0.20;99.90
20658;DHT22;10488;50.846;4.078;2024-01-16T00:49:19;0.20;99.90
20658;DHT22;10488;50.846;4.078;2024-01-16T00:51:45;0.20;99.90
20658;DHT22;10488;50.846;4.078;2024-01-16T00:54:11;0.20;99.90
20658;DHT22;10488;50.846;4.078;2024-01-16T00:56:36;0.20;99.90
20658;DHT22;10488;50.846;4.078;2024-01-16T00:59:02;0.10;99.90
20658;DHT22;10488;50.846;4.078;2024-01-16T01:01:28;0.00;99.90
20658;DHT22;10488;50.846;4.078;2024-01-16T01:03:54;0.00;99.90
20658;DHT22;10488;50.846;4.078;2024-01-16T01:06:20;-0.10;99.90
20658;DHT22;10488;50.846;4.078;2024-01-16T01:08:46;-0.10;99.90
20658;DHT22;10488;50.846;4.078;2024-01-16T01:11:12;-0.10;99.90
20658;DHT22;10488;50.846;4.078;2024-01-16T01:13:38;-0.10;99.90
20658;DHT22;10488;50.846;4.078;2024-01-16T01:16:04;-0.10;99.90
20658;DHT22;10488;50.846;4.078;2024-01-16T01:18:29;-0.10;99.90
20658;DHT22;10488;50.846;4.078;2024-01-16T01:20:55;-0.10;99.90
20658;DHT22;10488;50.846;4.078;2024-01-16T01:23:21;0.00;99.90
20658;DHT22;10488;50.846;4.078;2024-01-16T01:25:47;-0.10;99.90
20658;DHT22;10488;50.846;4.078;2024-01-16T01:28:13;-0.10;99.90
20658;DHT22;10488;50.846;4.078;2024-01-16T01:30:38;-0.10;99.90
20658;DHT22;10488;50.846;4.078;2024-01-16T01:33:04;-0.10;99.90
20658;DHT22;10488;50.846;4.078;2024-01-16T01:35:30;-0.10;99.90
20658;DHT22;10488;50.846;4.078;2024-01-16T01:37:56;0.00;99.90
20658;DHT22;10488;50.846;4.078;2024-01-16T01:40:22;0.10;99.90
20658;DHT22;10488;50.846;4.078;2024-01-16T01:42:47;0.20;99.90
20658;DHT22;10488;50.846;4.078;2024-01-16T01:45:13;0.30;99.90
20658;DHT22;10488;50.846;4.078;2024-01-16T01:47:42;0.20;99.90
20658;DHT22;10488;50.846;4.078;2024-01-16T01:50:09;0.20;99.90
20658;DHT22;10488;50.846;4.078;2024-01-16T01:52:39;0.10;99.90
20658;DHT22;10488;50.846;4.078;2024-01-16T01:55:09;0.10;99.90
20658;DHT22;10488;50.846;4.078;2024-01-16T01:57:36;0.10;99.90
20658;DHT22;10488;50.846;4.078;2024-01-16T02:00:02;0.10;99.90
20658;DHT22;10488;50.846;4.078;2024-01-16T02:02:29;0.10;99.90
20658;DHT22;10488;50.846;4.078;2024-01-16T02:04:56;0.10;99.90
20658;DHT22;10488;50.846;4.078;2024-01-16T02:07:22;0.20;99.90
20658;DHT22;10488;50.846;4.078;2024-01-16T02:09:49;0.10;99.90
20658;DHT22;10488;50.846;4.078;2024-01-16T02:12:15;0.10;99.90
20658;DHT22;10488;50.846;4.078;2024-01-16T02:14:40;0.00;99.90
20658;DHT22;10488;50.846;4.078;2024-01-16T02:17:06;0.10;99.90
20658;DHT22;10488;50.846;4.078;2024-01-16T02:19:32;0.00;99.90
20658;DHT22;10488;50.846;4.078;2024-01-16T02:21:59;0.00;99.90
20658;DHT22;10488;50.846;4.078;2024-01-16T02:24:26;0.00;99.90
20658;DHT22;10488;50.846;4.078;2024-01-16T02:26:52;0.00;99.90
20658;DHT22;10488;50.846;4.078;2024-01-16T02:29:18;0.00;99.90
20658;DHT22;10488;50.846;4.078;2024-01-16T02:31:45;0.00;99.90
20658;DHT22;10488;50.846;4.078;2024-01-16T02:34:10;-0.10;99.90
20658;DHT22;10488;50.846;4.078;2024-01-16T02:36:36;-0.10;99.90
20658;DHT22;10488;50.846;4.078;2024-01-16T02:39:01;-0.10;99.90
20658;DHT22;10488;50.846;4.078;2024-01-16T02:41:28;-0.10;99.90
20658;DHT22;10488;50.846;4.078;2024-01-16T02:43:53;-0.10;99.90
20658;DHT22;10488;50.846;4.078;2024-01-16T02:46:19;-0.10;99.90
20658;DHT22;10488;50.846;4.078;2024-01-16T02:48:45;-0.30;99.90
20658;DHT22;10488;50.846;4.078;2024-01-16T02:51:10;-0.30;99.90
20658;DHT22;10488;50.846;4.078;2024-01-16T02:53:36;-0.20;99.90
20658;DHT22;10488;50.846;4.078;2024-01-16T02:56:02;-0.20;99.90
20658;DHT22;10488;50.846;4.078;2024-01-16T02:58:29;-0.20;99.90
20658;DHT22;10488;50.846;4.078;2024-01-16T03:00:55;-0.20;99.90
20658;DHT22;10488;50.846;4.078;2024-01-16T03:03:21;-0.20;99.90
20658;DHT22;10488;50.846;4.078;2024-01-16T03:05:47;-0.10;99.90
20658;DHT22;10488;50.846;4.078;2024-01-16T03:08:13;-0.10;99.90
20658;DHT22;10488;50.846;4.078;2024-01-16T03:10:39;-0.10;99.90
20658;DHT22;10488;50.846;4.078;2024-01-16T03:13:04;-0.20;99.90
20658;DHT22;10488;50.846;4.078;2024-01-16T03:15:30;-0.20;99.90
20658;DHT22;10488;50.846;4.078;2024-01-16T03:17:57;-0.20;99.90
20658;DHT22;10488;50.846;4.078;2024-01-16T03:20:22;-0.20;99.90
20658;DHT22;10488;50.846;4.078;2024-01-16T03:22:49;-0.10;99.90
20658;DHT22;10488;50.846;4.078;2024-01-16T03:25:15;-0.10;99.90
20658;DHT22;10488;50.846;4.078;2024-01-16T03:27:42;-0.10;99.90
20658;DHT22;10488;50.846;4.078;2024-01-16T03:30:08;-0.10;99.90
20658;DHT22;10488;50.846;4.078;2024-01-16T03:32:38;-0.10;99.90
20658;DHT22;10488;50.846;4.078;2024-01-16T03:35:05;-0.10;99.90
20658;DHT22;10488;50.846;4.078;2024-01-16T03:37:31;-0.10;99.90
20658;DHT22;10488;50.846;4.078;2024-01-16T03:39:57;0.00;99.90
20658;DHT22;10488;50.846;4.078;2024-01-16T03:42:23;0.00;99.90
20658;DHT22;10488;50.846;4.078;2024-01-16T03:44:48;-0.10;99.90
20658;DHT22;10488;50.846;4.078;2024-01-16T03:47:15;0.00;99.90
20658;DHT22;10488;50.846;4.078;2024-01-16T03:49:40;-0.10;99.90
20658;DHT22;10488;50.846;4.078;2024-01-16T03:52:06;-0.10;99.90
20658;DHT22;10488;50.846;4.078;2024-01-16T03:54:32;-0.20;99.90
20658;DHT22;10488;50.846;4.078;2024-01-16T03:56:57;-0.20;99.90
20658;DHT22;10488;50.846;4.078;2024-01-16T03:59:23;-0.20;99.90
20658;DHT22;10488;50.846;4.078;2024-01-16T04:01:49;-0.20;99.90
20658;DHT22;10488;50.846;4.078;2024-01-16T04:04:15;-0.20;99.90
20658;DHT22;10488;50.846;4.078;2024-01-16T04:06:41;-0.20;99.90
20658;DHT22;10488;50.846;4.078;2024-01-16T04:09:07;-0.20;99.90
20658;DHT22;10488;50.846;4.078;2024-01-16T04:11:33;-0.30;99.90
20658;DHT22;10488;50.846;4.078;2024-01-16T04:14:00;-0.30;99.90
20658;DHT22;10488;50.846;4.078;2024-01-16T04:16:25;-0.30;99.90
20658;DHT22;10488;50.846;4.078;2024-01-16T04:18:52;-0.30;99.90
20658;DHT22;10488;50.846;4.078;2024-01-16T04:21:17;-0.30;99.90
20658;DHT22;10488;50.846;4.078;2024-01-16T04:23:43;-0.30;99.90
20658;DHT22;10488;50.846;4.078;2024-01-16T04:26:09;-0.30;99.90
20658;DHT22;10488;50.846;4.078;2024-01-16T04:28:35;-0.40;99.90
20658;DHT22;10488;50.846;4.078;2024-01-16T04:31:03;-0.40;99.90
20658;DHT22;10488;50.846;4.078;2024-01-16T04:33:28;-0.40;99.90
20658;DHT22;10488;50.846;4.078;2024-01-16T04:35:55;-0.40;99.90
20658;DHT22;10488;50.846;4.078;2024-01-16T04:38:21;-0.50;99.90
20658;DHT22;10488;50.846;4.078;2024-01-16T04:40:47;-0.40;99.90
20658;DHT22;10488;50.846;4.078;2024-01-16T04:43:13;-0.40;99.90
20658;DHT22;10488;50.846;4.078;2024-01-16T04:45:38;-0.50;99.90
20658;DHT22;10488;50.846;4.078;2024-01-16T04:48:04;-0.60;99.90
20658;DHT22;10488;50.846;4.078;2024-01-16T04:50:30;-0.70;99.90
20658;DHT22;10488;50.846;4.078;2024-01-16T04:52:59;-0.70;99.90
20658;DHT22;10488;50.846;4.078;2024-01-16T04:55:30;-0.70;99.90
20658;DHT22;10488;50.846;4.078;2024-01-16T04:57:56;-0.80;99.90
20658;DHT22;10488;50.846;4.078;2024-01-16T05:00:23;-0.80;99.90
20658;DHT22;10488;50.846;4.078;2024-01-16T05:02:48;-0.80;99.90
20658;DHT22;10488;50.846;4.078;2024-01-16T05:05:14;-0.90;99.90
20658;DHT22;10488;50.846;4.078;2024-01-16T05:07:40;-0.90;99.90
20658;DHT22;10488;50.846;4.078;2024-01-16T05:10:09;-0.90;99.90
20658;DHT22;10488;50.846;4.078;2024-01-16T05:12:34;-0.90;99.90
20658;DHT22;10488;50.846;4.078;2024-01-16T05:15:00;-0.90;99.90
20658;DHT22;10488;50.846;4.078;2024-01-16T05:17:26;-0.90;99.90
20658;DHT22;10488;50.846;4.078;2024-01-16T05:19:51;-0.90;99.90
20658;DHT22;10488;50.846;4.078;2024-01-16T05:22:17;-1.00;99.90
20658;DHT22;10488;50.846;4.078;2024-01-16T05:24:43;-1.00;99.90
20658;DHT22;10488;50.846;4.078;2024-01-16T05:27:08;-1.10;99.90
20658;DHT22;10488;50.846;4.078;2024-01-16T05:29:34;-1.00;99.90
20658;DHT22;10488;50.846;4.078;2024-01-16T05:32:03;-1.10;99.90
20658;DHT22;10488;50.846;4.078;2024-01-16T05:34:29;-1.10;99.90
20658;DHT22;10488;50.846;4.078;2024-01-16T05:36:55;-1.10;99.90
20658;DHT22;10488;50.846;4.078;2024-01-16T05:39:20;-1.10;99.90
20658;DHT22;10488;50.846;4.078;2024-01-16T05:41:46;-1.10;99.90
20658;DHT22;10488;50.846;4.078;2024-01-16T05:44:12;-1.20;99.90
20658;DHT22;10488;50.846;4.078;2024-01-16T05:46:38;-1.20;99.90
20658;DHT22;10488;50.846;4.078;2024-01-16T05:49:03;-1.20;99.90
20658;DHT22;10488;50.846;4.078;2024-01-16T05:51:29;-1.10;99.90
20658;DHT22;10488;50.846;4.078;2024-01-16T05:53:55;-1.10;99.90
20658;DHT22;10488;50.846;4.078;2024-01-16T05:56:21;-1.10;99.90
20658;DHT22;10488;50.846;4.078;2024-01-16T05:58:46;-1.00;99.90
20658;DHT22;10488;50.846;4.078;2024-01-16T06:01:12;-1.00;99.90
20658;DHT22;10488;50.846;4.078;2024-01-16T06:03:39;-1.00;99.90
20658;DHT22;10488;50.846;4.078;2024-01-16T06:06:05;-0.90;99.90
20658;DHT22;10488;50.846;4.078;2024-01-16T06:08:31;-0.90;99.90
20658;DHT22;10488;50.846;4.078;2024-01-16T06:10:57;-0.90;99.90
20658;DHT22;10488;50.846;4.078;2024-01-16T06:13:22;-0.80;99.90
20658;DHT22;10488;50.846;4.078;2024-01-16T06:15:48;-0.80;99.90
20658;DHT22;10488;50.846;4.078;2024-01-16T06:18:13;-0.80;99.90
20658;DHT22;10488;50.846;4.078;2024-01-16T06:20:39;-0.70;99.90
20658;DHT22;10488;50.846;4.078;2024-01-16T06:23:05;-0.70;99.90
20658;DHT22;10488;50.846;4.078;2024-01-16T06:25:30;-0.70;99.90
20658;DHT22;10488;50.846;4.078;2024-01-16T06:27:56;-0.60;99.90
20658;DHT22;10488;50.846;4.078;2024-01-16T06:30:22;-0.60;99.90
20658;DHT22;10488;50.846;4.078;2024-01-16T06:32:48;-0.50;99.90
20658;DHT22;10488;50.846;4.078;2024-01-16T06:35:15;-0.50;99.90
20658;DHT22;10488;50.846;4.078;2024-01-16T06:37:41;-0.50;99.90
20658;DHT22;10488;50.846;4.078;2024-01-16T06:40:07;-0.50;99.90
20658;DHT22;10488;50.846;4.078;2024-01-16T06:42:33;-0.40;99.90
20658;DHT22;10488;50.846;4.078;2024-01-16T06:44:59;-0.40;99.90
20658;DHT22;10488;50.846;4.078;2024-01-16T06:47:24;-0.40;99.90
20658;DHT22;10488;50.846;4.078;2024-01-16T06:49:50;-0.60;99.90
20658;DHT22;10488;50.846;4.078;2024-01-16T06:52:15;-0.60;99.90
20658;DHT22;10488;50.846;4.078;2024-01-16T06:54:41;-0.70;99.90
20658;DHT22;10488;50.846;4.078;2024-01-16T06:57:07;-0.70;99.90
20658;DHT22;10488;50.846;4.078;2024-01-16T06:59:32;-0.70;99.90
20658;DHT22;10488;50.846;4.078;2024-01-16T07:01:58;-0.80;99.90
20658;DHT22;10488;50.846;4.078;2024-01-16T07:04:23;-0.80;99.90
20658;DHT22;10488;50.846;4.078;2024-01-16T07:06:49;-0.90;99.90
20658;DHT22;10488;50.846;4.078;2024-01-16T07:09:15;-0.90;99.90
20658;DHT22;10488;50.846;4.078;2024-01-16T07:11:42;-0.90;99.90
20658;DHT22;10488;50.846;4.078;2024-01-16T07:14:09;-1.00;99.90
20658;DHT22;10488;50.846;4.078;2024-01-16T07:16:35;-1.10;99.90
20658;DHT22;10488;50.846;4.078;2024-01-16T07:19:01;-1.10;99.90
20658;DHT22;10488;50.846;4.078;2024-01-16T07:21:27;-1.10;99.90
20658;DHT22;10488;50.846;4.078;2024-01-16T07:23:54;-1.00;99.90
20658;DHT22;10488;50.846;4.078;2024-01-16T07:26:21;-1.00;99.90
20658;DHT22;10488;50.846;4.078;2024-01-16T07:28:47;-1.10;99.90
20658;DHT22;10488;50.846;4.078;2024-01-16T07:31:15;-1.10;99.90
20658;DHT22;10488;50.846;4.078;2024-01-16T07:33:44;-1.00;99.90
20658;DHT22;10488;50.846;4.078;2024-01-16T07:36:10;-1.00;99.90
20658;DHT22;10488;50.846;4.078;2024-01-16T07:38:36;-1.00;99.90
20658;DHT22;10488;50.846;4.078;2024-01-16T07:41:03;-1.00;99.90
20658;DHT22;10488;50.846;4.078;2024-01-16T07:43:28;-0.90;99.90
20658;DHT22;10488;50.846;4.078;2024-01-16T07:45:58;-0.90;99.90
20658;DHT22;10488;50.846;4.078;2024-01-16T07:48:24;-0.90;99.90
20658;DHT22;10488;50.846;4.078;2024-01-16T07:50:50;-0.90;99.90
20658;DHT22;10488;50.846;4.078;2024-01-16T07:53:16;-1.00;99.90
20658;DHT22;10488;50.846;4.078;2024-01-16T07:55:42;-0.90;99.90
20658;DHT22;10488;50.846;4.078;2024-01-16T07:58:11;-0.90;99.90
20658;DHT22;10488;50.846;4.078;2024-01-16T08:00:37;-0.90;99.90
20658;DHT22;10488;50.846;4.078;2024-01-16T08:03:04;-0.90;99.90
20658;DHT22;10488;50.846;4.078;2024-01-16T08:05:30;-0.80;99.90
20658;DHT22;10488;50.846;4.078;2024-01-16T08:07:56;-0.70;99.90
20658;DHT22;10488;50.846;4.078;2024-01-16T08:10:22;-0.80;99.90
20658;DHT22;10488;50.846;4.078;2024-01-16T08:12:48;-0.70;99.90
20658;DHT22;10488;50.846;4.078;2024-01-16T08:15:14;-0.70;99.90
20658;DHT22;10488;50.846;4.078;2024-01-16T08:17:39;-0.70;99.90
20658;DHT22;10488;50.846;4.078;2024-01-16T08:20:06;-0.60;99.90
20658;DHT22;10488;50.846;4.078;2024-01-16T08:22:32;-0.50;99.90
20658;DHT22;10488;50.846;4.078;2024-01-16T08:24:57;-0.40;99.90
20658;DHT22;10488;50.846;4.078;2024-01-16T08:27:23;-0.40;99.90
20658;DHT22;10488;50.846;4.078;2024-01-16T08:29:49;-0.30;99.90
20658;DHT22;10488;50.846;4.078;2024-01-16T08:32:16;-0.40;99.90
20658;DHT22;10488;50.846;4.078;2024-01-16T08:34:42;-0.30;99.90
20658;DHT22;10488;50.846;4.078;2024-01-16T08:37:08;-0.30;99.90
20658;DHT22;10488;50.846;4.078;2024-01-16T08:39:34;-0.30;99.90
20658;DHT22;10488;50.846;4.078;2024-01-16T08:42:00;-0.30;99.90
20658;DHT22;10488;50.846;4.078;2024-01-16T08:44:28;-0.20;99.90
20658;DHT22;10488;50.846;4.078;2024-01-16T08:46:54;-0.20;99.90
20658;DHT22;10488;50.846;4.078;2024-01-16T08:49:20;-0.20;99.90
20658;DHT22;10488;50.846;4.078;2024-01-16T08:51:45;-0.20;99.90
20658;DHT22;10488;50.846;4.078;2024-01-16T08:54:11;-0.20;99.90
20658;DHT22;10488;50.846;4.078;2024-01-16T08:56:37;-0.10;99.90
20658;DHT22;10488;50.846;4.078;2024-01-16T08:59:03;-0.10;99.90
20658;DHT22;10488;50.846;4.078;2024-01-16T09:01:28;0.00;99.90
20658;DHT22;10488;50.846;4.078;2024-01-16T09:03:54;0.20;99.90
20658;DHT22;10488;50.846;4.078;2024-01-16T09:06:19;0.20;99.90
20658;DHT22;10488;50.846;4.078;2024-01-16T09:08:46;0.10;99.90
20658;DHT22;10488;50.846;4.078;2024-01-16T09:11:11;0.10;99.90
20658;DHT22;10488;50.846;4.078;2024-01-16T09:13:37;0.10;99.90
20658;DHT22;10488;50.846;4.078;2024-01-16T09:16:04;0.10;99.90
20658;DHT22;10488;50.846;4.078;2024-01-16T09:18:29;0.10;99.90
20658;DHT22;10488;50.846;4.078;2024-01-16T09:20:55;0.30;99.90
20658;DHT22;10488;50.846;4.078;2024-01-16T09:23:22;0.40;99.90
20658;DHT22;10488;50.846;4.078;2024-01-16T09:25:48;0.40;99.90
20658;DHT22;10488;50.846;4.078;2024-01-16T09:28:13;0.50;99.90
20658;DHT22;10488;50.846;4.078;2024-01-16T09:30:41;0.40;99.90
20658;DHT22;10488;50.846;4.078;2024-01-16T09:33:07;0.40;99.90
20658;DHT22;10488;50.846;4.078;2024-01-16T09:35:32;0.40;99.90
20658;DHT22;10488;50.846;4.078;2024-01-16T09:37:58;0.40;99.90
20658;DHT22;10488;50.846;4.078;2024-01-16T09:40:25;0.40;99.90
20658;DHT22;10488;50.846;4.078;2024-01-16T09:42:51;0.20;99.90
20658;DHT22;10488;50.846;4.078;2024-01-16T09:45:20;0.30;99.90
20658;DHT22;10488;50.846;4.078;2024-01-16T09:47:47;0.30;99.90
20658;DHT22;10488;50.846;4.078;2024-01-16T09:50:15;0.30;99.90
20658;DHT22;10488;50.846;4.078;2024-01-16T09:52:45;0.40;99.90
20658;DHT22;10488;50.846;4.078;2024-01-16T09:55:10;0.50;99.90
20658;DHT22;10488;50.846;4.078;2024-01-16T09:57:39;0.60;99.90
20658;DHT22;10488;50.846;4.078;2024-01-16T10:00:10;0.70;99.90
20658;DHT22;10488;50.846;4.078;2024-01-16T10:02:42;1.00;99.90
20658;DHT22;10488;50.846;4.078;2024-01-16T10:05:09;1.00;99.90
20658;DHT22;10488;50.846;4.078;2024-01-16T10:07:39;1.20;99.90
20658;DHT22;10488;50.846;4.078;2024-01-16T10:10:05;1.10;99.90
20658;DHT22;10488;50.846;4.078;2024-01-16T10:12:33;1.30;99.90
20658;DHT22;10488;50.846;4.078;2024-01-16T10:14:59;1.20;99.90
20658;DHT22;10488;50.846;4.078;2024-01-16T10:17:41;1.10;99.90
20658;DHT22;10488;50.846;4.078;2024-01-16T10:20:09;1.10;99.90
20658;DHT22;10488;50.846;4.078;2024-01-16T10:22:39;1.10;99.90
20658;DHT22;10488;50.846;4.078;2024-01-16T10:25:09;1.00;99.90
20658;DHT22;10488;50.846;4.078;2024-01-16T10:27:36;0.90;99.90
20658;DHT22;10488;50.846;4.078;2024-01-16T10:30:02;0.90;99.90
20658;DHT22;10488;50.846;4.078;2024-01-16T10:32:34;1.00;99.90
20658;DHT22;10488;50.846;4.078;2024-01-16T10:35:08;1.10;99.90
20658;DHT22;10488;50.846;4.078;2024-01-16T10:37:42;1.10;99.90
20658;DHT22;10488;50.846;4.078;2024-01-16T10:40:09;1.10;99.90
20658;DHT22;10488;50.846;4.078;2024-01-16T10:42:34;1.50;99.90
20658;DHT22;10488;50.846;4.078;2024-01-16T10:45:00;1.60;99.90
20658;DHT22;10488;50.846;4.078;2024-01-16T10:47:26;1.50;99.90
20658;DHT22;10488;50.846;4.078;2024-01-16T10:49:51;1.60;99.90
20658;DHT22;10488;50.846;4.078;2024-01-16T10:52:18;1.60;99.90
20658;DHT22;10488;50.846;4.078;2024-01-16T10:54:43;1.80;99.90
20658;DHT22;10488;50.846;4.078;2024-01-16T10:57:14;1.70;99.90
20658;DHT22;10488;50.846;4.078;2024-01-16T10:59:48;1.70;99.90
20658;DHT22;10488;50.846;4.078;2024-01-16T11:02:19;1.70;99.90
20658;DHT22;10488;50.846;4.078;2024-01-16T11:04:46;1.80;99.90
20658;DHT22;10488;50.846;4.078;2024-01-16T11:07:14;1.80;99.90
20658;DHT22;10488;50.846;4.078;2024-01-16T11:09:40;1.70;99.90
20658;DHT22;10488;50.846;4.078;2024-01-16T11:12:08;1.80;99.90
20658;DHT22;10488;50.846;4.078;2024-01-16T11:14:35;1.80;99.90
20658;DHT22;10488;50.846;4.078;2024-01-16T11:17:03;2.20;99.90
20658;DHT22;10488;50.846;4.078;2024-01-16T11:19:29;2.20;99.90
20658;DHT22;10488;50.846;4.078;2024-01-16T11:21:57;2.30;99.90
20658;DHT22;10488;50.846;4.078;2024-01-16T11:24:24;2.40;99.90
20658;DHT22;10488;50.846;4.078;2024-01-16T11:26:49;2.30;99.90
20658;DHT22;10488;50.846;4.078;2024-01-16T11:31:54;2.30;99.90
20658;DHT22;10488;50.846;4.078;2024-01-16T11:37:08;2.60;99.90
20658;DHT22;10488;50.846;4.078;2024-01-16T11:39:36;2.70;99.90
20658;DHT22;10488;50.846;4.078;2024-01-16T11:42:01;2.80;99.90
20658;DHT22;10488;50.846;4.078;2024-01-16T11:44:38;2.80;99.90
20658;DHT22;10488;50.846;4.078;2024-01-16T11:47:04;2.80;99.90
20658;DHT22;10488;50.846;4.078;2024-01-16T11:49:30;2.80;99.90
20658;DHT22;10488;50.846;4.078;2024-01-16T11:51:59;2.80;99.90
20658;DHT22;10488;50.846;4.078;2024-01-16T11:54:24;2.90;99.90
20658;DHT22;10488;50.846;4.078;2024-01-16T12:05:22;3.10;99.90
20658;DHT22;10488;50.846;4.078;2024-01-16T12:07:49;3.10;99.90
20658;DHT22;10488;50.846;4.078;2024-01-16T12:10:22;3.10;99.90
20658;DHT22;10488;50.846;4.078;2024-01-16T12:12:49;3.10;99.90
20658;DHT22;10488;50.846;4.078;2024-01-16T12:15:20;3.10;99.90
20658;DHT22;10488;50.846;4.078;2024-01-16T12:17:59;3.10;99.90
20658;DHT22;10488;50.846;4.078;2024-01-16T12:20:30;3.40;99.90
20658;DHT22;10488;50.846;4.078;2024-01-16T12:23:01;3.40;99.90
20658;DHT22;10488;50.846;4.078;2024-01-16T12:25:28;3.40;99.90
20658;DHT22;10488;50.846;4.078;2024-01-16T12:30:20;3.50;99.90
20658;DHT22;10488;50.846;4.078;2024-01-16T12:32:47;3.40;99.90
20658;DHT22;10488;50.846;4.078;2024-01-16T12:35:12;3.40;99.90
20658;DHT22;10488;50.846;4.078;2024-01-16T12:37:58;3.50;99.90
20658;DHT22;10488;50.846;4.078;2024-01-16T12:40:23;3.40;99.90
20658;DHT22;10488;50.846;4.078;2024-01-16T12:42:50;3.60;99.90
20658;DHT22;10488;50.846;4.078;2024-01-16T12:45:17;3.60;99.90
20658;DHT22;10488;50.846;4.078;2024-01-16T12:47:43;3.40;99.90
20658;DHT22;10488;50.846;4.078;2024-01-16T12:50:10;3.50;99.90
20658;DHT22;10488;50.846;4.078;2024-01-16T12:52:35;3.50;99.90
20658;DHT22;10488;50.846;4.078;2024-01-16T12:55:02;3.70;99.90
20658;DHT22;10488;50.846;4.078;2024-01-16T12:57:30;3.60;99.90
20658;DHT22;10488;50.846;4.078;2024-01-16T12:59:55;3.60;99.90
20658;DHT22;10488;50.846;4.078;2024-01-16T13:02:23;3.60;99.90
20658;DHT22;10488;50.846;4.078;2024-01-16T13:05:00;3.40;99.90
20658;DHT22;10488;50.846;4.078;2024-01-16T13:07:28;3.20;99.90
20658;DHT22;10488;50.846;4.078;2024-01-16T13:10:26;3.30;99.90
20658;DHT22;10488;50.846;4.078;2024-01-16T13:12:52;3.30;99.90
20658;DHT22;10488;50.846;4.078;2024-01-16T13:15:17;3.30;99.90
20658;DHT22;10488;50.846;4.078;2024-01-16T13:17:43;3.20;99.90
20658;DHT22;10488;50.846;4.078;2024-01-16T13:20:09;3.30;99.90
20658;DHT22;10488;50.846;4.078;2024-01-16T13:22:35;3.40;99.90
20658;DHT22;10488;50.846;4.078;2024-01-16T13:25:01;3.40;99.90
20658;DHT22;10488;50.846;4.078;2024-01-16T13:27:27;3.50;99.90
20658;DHT22;10488;50.846;4.078;2024-01-16T13:29:55;3.60;99.90
20658;DHT22;10488;50.846;4.078;2024-01-16T13:32:21;3.70;99.90
20658;DHT22;10488;50.846;4.078;2024-01-16T13:34:47;3.70;99.90
20658;DHT22;10488;50.846;4.078;2024-01-16T13:37:20;3.60;99.90
20658;DHT22;10488;50.846;4.078;2024-01-16T13:39:46;3.60;99.90
20658;DHT22;10488;50.846;4.078;2024-01-16T13:42:12;3.50;99.90
20658;DHT22;10488;50.846;4.078;2024-01-16T13:44:38;3.50;99.90
20658;DHT22;10488;50.846;4.078;2024-01-16T13:47:04;3.60;99.90
20658;DHT22;10488;50.846;4.078;2024-01-16T13:49:30;3.60;99.90
20658;DHT22;10488;50.846;4.078;2024-01-16T13:51:56;3.70;99.90
20658;DHT22;10488;50.846;4.078;2024-01-16T13:54:21;3.60;99.90
20658;DHT22;10488;50.846;4.078;2024-01-16T13:56:47;3.60;99.90
20658;DHT22;10488;50.846;4.078;2024-01-16T13:59:12;3.50;99.90
20658;DHT22;10488;50.846;4.078;2024-01-16T14:01:38;3.50;99.90
20658;DHT22;10488;50.846;4.078;2024-01-16T14:04:04;3.50;99.90
20658;DHT22;10488;50.846;4.078;2024-01-16T14:06:30;3.60;99.90
20658;DHT22;10488;50.846;4.078;2024-01-16T14:08:56;3.50;99.90
20658;DHT22;10488;50.846;4.078;2024-01-16T14:11:21;3.60;99.90
20658;DHT22;10488;50.846;4.078;2024-01-16T14:13:47;3.70;99.90
20658;DHT22;10488;50.846;4.078;2024-01-16T14:16:13;3.50;99.90
20658;DHT22;10488;50.846;4.078;2024-01-16T14:18:39;3.60;99.90
20658;DHT22;10488;50.846;4.078;2024-01-16T14:21:05;3.50;99.90
20658;DHT22;10488;50.846;4.078;2024-01-16T14:23:31;3.50;99.90
20658;DHT22;10488;50.846;4.078;2024-01-16T14:25:57;3.60;99.90
20658;DHT22;10488;50.846;4.078;2024-01-16T14:28:23;3.50;99.90
20658;DHT22;10488;50.846;4.078;2024-01-16T14:30:51;3.40;99.90
20658;DHT22;10488;50.846;4.078;2024-01-16T14:33:17;3.20;99.90
20658;DHT22;10488;50.846;4.078;2024-01-16T14:35:43;3.30;99.90
20658;DHT22;10488;50.846;4.078;2024-01-16T14:38:09;3.10;99.90
20658;DHT22;10488;50.846;4.078;2024-01-16T14:40:35;3.20;99.90
20658;DHT22;10488;50.846;4.078;2024-01-16T14:43:01;3.30;99.90
20658;DHT22;10488;50.846;4.078;2024-01-16T14:45:30;3.40;99.90
20658;DHT22;10488;50.846;4.078;2024-01-16T14:47:57;3.40;99.90
20658;DHT22;10488;50.846;4.078;2024-01-16T14:50:23;3.20;99.90
20658;DHT22;10488;50.846;4.078;2024-01-16T14:52:50;3.00;99.90
20658;DHT22;10488;50.846;4.078;2024-01-16T14:55:16;3.00;99.90
20658;DHT22;10488;50.846;4.078;2024-01-16T14:57:42;2.90;99.90
20658;DHT22;10488;50.846;4.078;2024-01-16T15:00:10;2.90;99.90
20658;DHT22;10488;50.846;4.078;2024-01-16T15:02:41;2.90;99.90
20658;DHT22;10488;50.846;4.078;2024-01-16T15:05:07;2.90;99.90
20658;DHT22;10488;50.846;4.078;2024-01-16T15:07:33;2.80;99.90
20658;DHT22;10488;50.846;4.078;2024-01-16T15:10:00;2.80;99.90
20658;DHT22;10488;50.846;4.078;2024-01-16T15:12:26;2.70;99.90
20658;DHT22;10488;50.846;4.078;2024-01-16T15:14:52;2.80;99.90
20658;DHT22;10488;50.846;4.078;2024-01-16T15:17:17;2.80;99.90
20658;DHT22;10488;50.846;4.078;2024-01-16T15:19:43;2.60;99.90
20658;DHT22;10488;50.846;4.078;2024-01-16T15:22:08;2.50;99.90
20658;DHT22;10488;50.846;4.078;2024-01-16T15:24:34;2.50;99.90
20658;DHT22;10488;50.846;4.078;2024-01-16T15:27:00;2.40;99.90
20658;DHT22;10488;50.846;4.078;2024-01-16T15:29:25;2.40;99.90
20658;DHT22;10488;50.846;4.078;2024-01-16T15:31:51;2.40;99.90
20658;DHT22;10488;50.846;4.078;2024-01-16T15:34:18;2.20;99.90
20658;DHT22;10488;50.846;4.078;2024-01-16T15:36:44;2.20;99.90
20658;DHT22;10488;50.846;4.078;2024-01-16T15:39:11;2.10;99.90
20658;DHT22;10488;50.846;4.078;2024-01-16T15:41:37;2.00;99.90
20658;DHT22;10488;50.846;4.078;2024-01-16T15:44:02;2.00;99.90
20658;DHT22;10488;50.846;4.078;2024-01-16T15:46:28;1.90;99.90
20658;DHT22;10488;50.846;4.078;2024-01-16T15:48:53;2.00;99.90
20658;DHT22;10488;50.846;4.078;2024-01-16T15:51:22;1.90;99.90